Time;durP1;ratioP1;P1;durP2;ratioP2;P2;SDS_P1;SDS_P2;PMS_P1;PMS_P2;Temp;Humidity;BMP_temperature;BMP_pressure;BME280_temperature;BME280_humidity;BME280_pressure;Samples;Min_cycle;Max_cycle;Signal;HPM_P1;HPM_P2
2022/08/24 00:05:27;;;;;;;24.10;20.70;;;;;;;20.15;92.59;98786.21;433396;1269;109635;-40
2022/08/24 00:15:35;;;;;;;24.00;20.60;;;;;;;20.16;92.61;98775.35;433344;1270;97010;-39
2022/08/24 00:25:42;;;;;;;27.30;22.80;;;;;;;20.13;92.54;98777.10;433012;1270;108761;-39
2022/08/24 00:35:49;;;;;;;24.90;22.20;;;;;;;20.07;92.57;98775.55;433331;1269;97918;-39
2022/08/24 00:45:56;;;;;;;25.40;20.30;;;;;;;20.06;92.76;98770.58;433095;1269;111333;-40
2022/08/24 00:56:06;;;;;;;27.00;21.10;;;;;;;19.97;92.54;98761.48;433280;1269;108996;-40
2022/08/24 01:27:08;;;;;;;21.60;17.20;;;;;;;19.76;92.71;98781.30;431980;1273;97539;-39
2022/08/24 01:37:16;;;;;;;22.00;17.20;;;;;;;19.79;92.97;98787.70;432021;1273;109505;-39
2022/08/24 01:47:24;;;;;;;23.30;16.90;;;;;;;19.77;92.84;98788.59;431819;1273;108841;-39
2022/08/24 01:57:31;;;;;;;18.00;15.60;;;;;;;19.73;92.82;98789.23;431938;1273;97815;-40
2022/08/24 02:07:39;;;;;;;18.80;15.50;;;;;;;19.62;92.77;98789.29;432226;1273;108830;-39
2022/08/24 02:17:47;;;;;;;19.50;15.00;;;;;;;19.70;93.34;98797.73;431605;1274;97467;-39
2022/08/24 02:38:00;;;;;;;21.10;15.00;;;;;;;19.51;92.74;98802.20;431450;1273;108906;-40
2022/08/24 02:48:07;;;;;;;21.70;13.30;;;;;;;19.27;92.51;98811.70;432044;1273;97519;-39
2022/08/24 02:58:15;;;;;;;17.00;11.80;;;;;;;19.23;92.67;98814.63;432200;1273;109103;-40
2022/08/24 03:08:25;;;;;;;14.90;12.50;;;;;;;19.17;92.72;98818.98;431506;1273;98162;-41
2022/08/24 03:18:35;;;;;;;18.40;14.00;;;;;;;19.00;92.28;98819.95;430810;1273;111072;-40
2022/08/24 03:28:43;;;;;;;16.90;12.00;;;;;;;18.88;92.52;98825.29;431018;1273;108874;-41
2022/08/24 03:38:51;;;;;;;22.60;16.00;;;;;;;18.73;92.36;98835.03;431885;1273;97897;-40
2022/08/24 03:59:08;;;;;;;22.90;15.10;;;;;;;18.65;92.73;98840.54;432277;1273;98054;-39
2022/08/24 04:09:17;;;;;;;31.10;16.50;;;;;;;18.57;92.95;98837.67;432037;1273;111078;-39
2022/08/24 04:19:24;;;;;;;26.90;17.30;;;;;;;18.66;93.31;98837.00;431524;1274;108871;-39
2022/08/24 04:29:31;;;;;;;28.40;18.70;;;;;;;18.67;93.37;98833.79;431989;1273;97948;-40
2022/08/24 04:39:38;;;;;;;29.10;20.30;;;;;;;18.78;93.72;98833.84;432173;1271;108808;-38
2022/08/24 04:49:46;;;;;;;30.40;18.20;;;;;;;18.79;93.54;98845.67;432106;1273;97527;-38
2022/08/24 05:10:01;;;;;;;40.30;20.60;;;;;;;19.07;93.92;98842.95;432197;1273;107457;-39
2022/08/24 05:20:10;;;;;;;27.80;18.60;;;;;;;19.14;93.99;98850.02;432555;1273;96674;-39
2022/08/24 05:30:18;;;;;;;30.30;19.40;;;;;;;19.25;93.93;98846.29;431998;1271;108380;-38
2022/08/24 05:40:25;;;;;;;32.40;20.70;;;;;;;19.37;94.02;98851.71;432099;1273;97999;-39
2022/08/24 05:50:39;;;;;;;32.30;21.40;;;;;;;19.39;93.84;98855.51;432228;1273;110110;-39
2022/08/24 06:00:48;;;;;;;26.60;18.60;;;;;;;19.38;93.85;98859.70;431983;1273;108899;-39
2022/08/24 06:10:54;;;;;;;30.00;18.50;;;;;;;19.48;93.96;98853.94;431094;1273;1516324;-39
2022/08/24 06:21:04;;;;;;;21.50;15.40;;;;;;;19.44;93.67;98861.00;431850;1273;108770;-39
2022/08/24 06:31:11;;;;;;;20.60;14.00;;;;;;;19.49;93.91;98868.84;431107;1273;97898;-40
2022/08/24 06:41:17;;;;;;;24.40;14.10;;;;;;;19.80;94.11;98873.13;431999;1273;110612;-41
2022/08/24 07:01:32;;;;;;;26.20;14.20;;;;;;;20.26;93.85;98882.50;431964;1273;97511;-40
2022/08/24 07:11:40;;;;;;;17.90;10.50;;;;;;;20.55;93.69;98900.43;432343;1273;109168;-41
2022/08/24 07:21:47;;;;;;;17.70;11.40;;;;;;;20.94;93.42;98906.69;432179;1273;97884;-40
2022/08/24 07:31:54;;;;;;;15.40;10.60;;;;;;;21.30;92.78;98908.38;431886;1273;111135;-40
2022/08/24 07:42:01;;;;;;;15.50;10.90;;;;;;;21.62;92.47;98913.15;432444;1271;107814;-39
2022/08/24 07:52:21;;;;;;;18.40;11.00;;;;;;;21.95;92.17;98922.05;432421;1273;97371;-39
2022/08/24 08:02:27;;;;;;;;;;;;;;;22.18;91.60;98930.81;432266;1273;107993;-39
2022/08/24 08:12:41;;;;;;;16.70;12.80;;;;;;;22.59;91.71;98939.98;432165;1273;108863;-40
2022/08/24 08:33:14;;;;;;;12.40;9.70;;;;;;;23.68;90.46;98921.36;430996;1273;111101;-40
2022/08/24 08:43:28;;;;;;;13.90;10.00;;;;;;;24.26;89.63;98921.75;430815;1273;108850;-40
2022/08/24 08:54:04;;;;;;;15.80;9.30;;;;;;;24.35;89.23;98920.23;430795;1273;97931;-40
2022/08/24 09:14:46;;;;;;;14.90;10.10;;;;;;;24.38;87.05;98929.58;432116;1273;108832;-40
2022/08/24 09:25:10;;;;;;;16.50;10.00;;;;;;;24.50;86.57;98934.63;432196;1273;97903;-40
2022/08/24 09:35:24;;;;;;;19.10;12.60;;;;;;;24.81;86.11;98938.68;431950;1273;111026;-40
2022/08/24 09:45:59;;;;;;;15.10;10.60;;;;;;;25.02;85.16;98940.04;431879;1273;108868;-40
2022/08/24 09:56:28;;;;;;;20.30;11.80;;;;;;;25.48;85.01;98939.95;432260;1273;97507;-41
2022/08/24 10:06:43;;;;;;;23.80;11.60;;;;;;;25.69;84.06;98933.89;432114;1273;111134;-41
2022/08/24 10:16:49;;;;;;;20.40;11.70;;;;;;;25.66;83.09;98933.91;432166;1273;108511;-38
2022/08/24 10:27:20;;;;;;;18.00;10.50;;;;;;;25.98;82.56;98923.45;431512;1274;96743;-39
2022/08/24 10:48:32;;;;;;;22.60;12.50;;;;;;;25.84;81.06;98921.94;432237;1273;108923;-39
2022/08/24 11:08:52;;;;;;;21.00;12.80;;;;;;;26.46;80.11;98927.36;432235;1273;111142;-38
2022/08/24 11:19:02;;;;;;;28.60;13.10;;;;;;;26.17;79.47;98934.36;432146;1273;109721;-39
2022/08/24 11:29:09;;;;;;;19.90;13.90;;;;;;;26.19;78.99;98930.42;432295;1273;97925;-39
2022/08/24 11:59:34;;;;;;;23.30;16.20;;;;;;;26.34;76.68;98935.08;432273;1273;97569;-39
2022/08/24 12:09:44;;;;;;;28.50;16.20;;;;;;;26.18;76.83;98926.29;432697;1273;110790;-38
2022/08/24 12:19:56;;;;;;;26.60;16.40;;;;;;;26.63;77.25;98929.83;432059;1273;109051;-39
2022/08/24 12:30:06;;;;;;;27.90;16.30;;;;;;;26.77;76.32;98930.52;432115;1273;98470;-39
2022/08/24 12:40:21;;;;;;;27.90;18.10;;;;;;;26.20;75.53;98932.85;432606;1273;111194;-39
2022/08/24 12:50:31;;;;;;;25.40;16.20;;;;;;;25.94;75.60;98930.64;432155;1273;108815;-40
2022/08/24 13:00:44;;;;;;;40.40;17.90;;;;;;;26.17;75.71;98926.80;431944;1274;97899;-40
2022/08/24 13:10:52;;;;;;;27.90;18.60;;;;;;;26.33;75.52;98925.91;432320;1273;111110;-40
2022/08/24 13:21:00;;;;;;;33.40;20.20;;;;;;;26.49;75.01;98927.80;432503;1273;108902;-40
2022/08/24 13:52:08;;;;;;;37.80;17.30;;;;;;;26.24;73.97;98910.79;432275;1274;106945;-40
2022/08/24 14:02:26;;;;;;;51.30;20.70;;;;;;;26.36;73.79;98902.63;432226;1273;97901;-40
2022/08/24 14:12:44;;;;;;;40.60;19.70;;;;;;;26.05;73.47;98885.30;432215;1274;98286;-40
2022/08/24 14:22:55;;;;;;;42.70;17.10;;;;;;;26.04;73.70;98879.26;432125;1273;111035;-41
2022/08/24 14:33:09;;;;;;;49.60;16.90;;;;;;;26.22;73.55;98870.59;431792;1273;108829;-39
2022/08/24 14:43:24;;;;;;;45.20;17.80;;;;;;;26.29;73.15;98863.14;431919;1274;98245;-39
2022/08/24 14:53:49;;;;;;;48.80;17.30;;;;;;;26.28;72.99;98854.28;431955;1273;110612;-39
2022/08/24 15:04:22;;;;;;;43.00;17.20;;;;;;;26.06;72.91;98854.78;432247;1274;108899;-40
2022/08/24 15:14:52;;;;;;;45.50;14.60;;;;;;;26.18;72.80;98876.00;432616;1273;97381;-39
2022/08/24 15:25:04;;;;;;;51.20;18.00;;;;;;;26.14;72.75;98907.36;432439;1273;111392;-40
2022/08/24 15:35:23;;;;;;;44.20;16.40;;;;;;;26.18;72.99;98922.42;432232;1272;109001;-39
2022/08/24 15:45:30;;;;;;;39.30;17.70;;;;;;;26.20;72.33;98902.20;432240;1273;108794;-39
2022/08/24 15:55:36;;;;;;;51.30;18.20;;;;;;;26.18;71.73;98891.27;432105;1273;97807;-42
2022/08/24 16:05:44;;;;;;;41.00;17.00;;;;;;;26.12;71.56;98906.38;431847;1273;108949;-39
2022/08/24 16:15:58;;;;;;;45.60;17.50;;;;;;;25.92;72.14;98908.18;432082;1273;97922;-38
2022/08/24 16:26:21;;;;;;;34.10;15.80;;;;;;;25.87;72.72;98926.46;432387;1273;97474;-38
2022/08/24 16:36:28;;;;;;;35.50;15.60;;;;;;;25.93;73.16;98924.88;432066;1273;108845;-38
2022/08/24 16:46:35;;;;;;;35.80;14.90;;;;;;;25.93;73.24;98926.34;432120;1273;97510;-39
2022/08/24 17:06:48;;;;;;;28.00;13.30;;;;;;;25.40;72.97;98932.25;432179;1273;109061;-39
2022/08/24 17:16:57;;;;;;;20.90;5.00;;;;;;;25.01;73.46;98959.08;432106;1273;97891;-40
2022/08/24 17:27:06;;;;;;;15.40;3.90;;;;;;;23.89;71.24;98990.04;432345;1273;111167;-38
2022/08/24 17:37:13;;;;;;;14.70;4.80;;;;;;;22.56;72.48;98990.48;431764;1274;108858;-42
2022/08/24 17:47:21;;;;;;;8.70;3.00;;;;;;;21.76;73.86;98983.70;431739;1272;98179;-41
2022/08/24 17:57:27;;;;;;;6.90;2.20;;;;;;;21.22;74.58;98980.37;431818;1273;110874;-40
2022/08/24 18:07:34;;;;;;;11.40;4.30;;;;;;;20.82;75.53;98984.05;430909;1273;1557755;-41
2022/08/24 18:18:01;;;;;;;12.80;4.40;;;;;;;20.43;76.47;98967.14;432208;1273;97496;-39
2022/08/24 18:28:07;;;;;;;14.20;5.20;;;;;;;20.31;77.56;98955.59;431950;1273;108876;-39
2022/08/24 18:38:15;;;;;;;17.10;4.90;;;;;;;20.29;78.12;98941.77;431956;1273;97894;-39
2022/08/24 18:48:23;;;;;;;15.10;4.60;;;;;;;19.88;78.79;98953.02;432243;1273;110182;-39
2022/08/24 18:58:31;;;;;;;12.40;3.60;;;;;;;19.82;79.51;98966.42;432346;1273;108042;-38
2022/08/24 19:08:38;;;;;;;6.30;3.70;;;;;;;19.92;80.31;98966.57;432101;1272;97507;-38
2022/08/24 19:18:47;;;;;;;13.40;4.10;;;;;;;19.97;80.62;98965.86;431785;1272;108585;-38
2022/08/24 19:28:55;;;;;;;8.00;3.90;;;;;;;20.03;80.94;98981.05;431820;1274;97477;-39
2022/08/24 19:39:03;;;;;;;13.10;5.30;;;;;;;19.98;81.14;98971.94;431976;1273;111379;-40
2022/08/24 19:49:12;;;;;;;11.20;4.40;;;;;;;19.81;81.34;98970.73;431662;1273;108858;-39
2022/08/24 19:59:21;;;;;;;11.20;5.10;;;;;;;19.66;81.67;98998.55;432206;1273;97667;-39
2022/08/24 20:19:36;;;;;;;13.60;6.60;;;;;;;19.58;83.02;99027.71;432119;1273;96637;-39
2022/08/24 20:29:43;;;;;;;23.70;7.90;;;;;;;19.68;83.48;99030.20;432194;1273;110998;-39
2022/08/24 20:39:52;;;;;;;17.40;7.30;;;;;;;19.80;83.72;99020.38;431351;1273;108759;-39
2022/08/24 20:49:59;;;;;;;20.90;6.30;;;;;;;19.77;83.81;99006.45;432040;1273;97602;-38
2022/08/24 21:10:16;;;;;;;19.30;6.30;;;;;;;19.63;84.08;98981.34;432245;1273;98152;-38
2022/08/24 21:20:24;;;;;;;12.30;6.50;;;;;;;19.56;84.32;98976.98;431856;1273;111116;-39
2022/08/24 21:30:32;;;;;;;13.00;5.40;;;;;;;19.52;84.47;98975.55;431886;1273;108903;-39
2022/08/24 21:40:42;;;;;;;14.10;5.80;;;;;;;19.46;84.59;98975.75;432095;1273;97926;-39
2022/08/24 21:50:49;;;;;;;19.80;7.50;;;;;;;19.32;84.88;98992.78;431809;1273;108755;-39
2022/08/24 22:00:56;;;;;;;19.70;5.60;;;;;;;19.31;85.08;98977.67;431656;1273;96660;-39
2022/08/24 22:11:07;;;;;;;17.50;6.70;;;;;;;19.31;85.18;98983.89;431999;1273;111559;-39
2022/08/24 22:21:16;;;;;;;15.00;5.60;;;;;;;19.35;85.53;98969.34;432066;1273;107816;-41
2022/08/24 22:41:33;;;;;;;14.10;6.40;;;;;;;19.47;85.93;98960.14;431936;1274;108917;-39
2022/08/24 22:51:40;;;;;;;11.80;6.30;;;;;;;19.59;86.02;98962.96;431652;1273;97887;-40
2022/08/24 23:01:50;;;;;;;10.70;4.90;;;;;;;19.59;86.06;98966.50;431786;1272;110061;-40
2022/08/24 23:11:58;;;;;;;10.80;6.50;;;;;;;19.60;86.22;98967.61;432079;1273;109474;-40
2022/08/24 23:22:07;;;;;;;16.20;6.10;;;;;;;19.53;86.26;98957.75;431926;1273;97894;-39
2022/08/24 23:32:16;;;;;;;21.50;8.70;;;;;;;19.50;86.31;98942.30;432049;1273;107878;-38
2022/08/24 23:42:24;;;;;;;18.50;7.90;;;;;;;19.47;86.42;98936.70;431909;1273;97488;-38
2022/08/24 23:52:31;;;;;;;16.60;7.60;;;;;;;19.53;86.66;98933.40;431936;1273;111067;-38
